To NAV CANADA Home Page Login to a new session Search on AWWS site Disclaimer Vers la page française équivalente Tips FAQ What's new on the site To the Forecasts and Observations / NOTAM section To "File a Flight Plan" website Publications and other links Update of the User's profile FIC Telephone Numbers My Weather Data Folder Route Weather Data Regional Weather Data Local Weather Data To the Forecasts and Observations / NOTAM section
Request Generated 04/24/2019 at 16:07:36 UTC . Weather information available at that time is displayed.

METAR/TAF

MARYS HARBOUR/NL    (show WxCam)

METAR CYMH 241600Z AUTO 08008KT 060V130 9SM BKN022 M01/M06 A3014 RMK SLP208=
SPECI CYMH 241558Z AUTO 09007KT 060V130 9SM BKN022 M01/M06 A3014 RMK SLP209=
METAR CYMH 241500Z AUTO 08009KT 9SM FEW022 M02/M07 A3016 RMK SLP214=
METAR CYMH 241400Z AUTO 10008KT 9SM CLR M02/M07 A3017 RMK SLP219=

TAF CYMH 241338Z 2414/2502 10010KT P6SM SKC
BECMG 2416/2418 09010KT
FM241900 09010KT P6SM FEW015
BECMG 2423/2501 02006KT
RMK FCST BASED ON AUTO OBS. NXT FCST BY 242000Z=
Your time UTC time
Weather data provided by Environment Canada and NAV CANADA